Terminal Aerodrome Forecast
Issued by NWS Omaha/Valley, NE

Home | Current Version | Previous Version | Text Only | Print | Product List | Glossary On
Versions: 1 2 3 4 5 6 7 8 9 10 11 12 13 14 15 16 17 18 19 20 21 22 23 24 25 26 27 28 29 30 31 32 33 34 35 36
000
FTUS43 KOAX 290520
TAFOFK
TAF
KOFK 290520Z 2906/3006 VRB04KT P6SM BKN250
     FM290800 24004KT P6SM SCT250 WS005/28037KT
     FM291300 24006KT P6SM SCT250 WS005/29038KT
     FM291600 26008KT P6SM SCT250
     FM292200 24008KT P6SM BKN250=

USA.gov is the U.S. government's official web portal to all federal, state and local government web resources and services.